createdAt,value
2018-06-22T00:00:56.309Z,0
2018-06-22T00:02:06.046Z,0
2018-06-22T00:03:16.050Z,0
2018-06-22T00:04:26.050Z,0
2018-06-22T00:05:35.787Z,0
2018-06-22T00:06:45.535Z,0
2018-06-22T00:07:55.274Z,0
2018-06-22T00:09:04.743Z,4
2018-06-22T00:10:14.480Z,4
2018-06-22T00:11:24.487Z,4
2018-06-22T00:12:34.505Z,4
2018-06-22T00:13:44.512Z,4
2018-06-22T00:14:53.718Z,4
2018-06-22T00:16:03.725Z,4
2018-06-22T00:17:13.192Z,4
2018-06-22T00:18:22.926Z,4
2018-06-22T00:19:32.933Z,4
2018-06-22T00:20:42.943Z,4
2018-06-22T00:21:52.940Z,4
2018-06-22T00:23:02.941Z,4
2018-06-22T00:24:12.943Z,4
2018-06-22T00:25:22.948Z,4
2018-06-22T00:26:32.954Z,4
2018-06-22T00:27:42.957Z,4
2018-06-22T00:28:52.966Z,8
2018-06-22T00:30:03.032Z,8
2018-06-22T00:31:12.785Z,4
2018-06-22T00:32:21.991Z,4
2018-06-22T00:33:31.990Z,4
2018-06-22T00:34:43.731Z,8
2018-06-22T00:35:53.204Z,8
2018-06-22T00:37:02.938Z,8
2018-06-22T00:38:12.682Z,8
2018-06-22T00:39:22.689Z,8
2018-06-22T00:40:32.431Z,8
2018-06-22T00:41:42.436Z,12
2018-06-22T00:42:51.905Z,8
2018-06-22T00:44:01.909Z,12
2018-06-22T00:45:11.647Z,12
2018-06-22T00:46:21.649Z,8
2018-06-22T00:47:31.653Z,12
2018-06-22T00:48:41.654Z,16
2018-06-22T00:49:51.384Z,12
2018-06-22T00:51:01.128Z,16
2018-06-22T00:52:10.700Z,12
2018-06-22T00:53:20.697Z,16
2018-06-22T00:54:30.440Z,16
2018-06-22T00:55:40.179Z,16
2018-06-22T00:56:49.920Z,20
2018-06-22T00:57:59.661Z,20
2018-06-22T00:59:08.876Z,24
2018-06-22T01:00:18.609Z,24
2018-06-22T01:01:28.345Z,24
2018-06-22T01:02:38.085Z,24
2018-06-22T01:03:47.822Z,28
2018-06-22T01:04:57.826Z,28
2018-06-22T01:06:07.559Z,28
2018-06-22T01:07:17.582Z,32
2018-06-22T01:08:27.318Z,32
2018-06-22T01:09:37.321Z,32
2018-06-22T01:10:46.790Z,36
2018-06-22T01:11:56.820Z,36
2018-06-22T01:13:06.575Z,40
2018-06-22T01:14:16.580Z,44
2018-06-22T01:15:26.579Z,44
2018-06-22T01:16:36.625Z,48
2018-06-22T01:17:46.102Z,52
2018-06-22T01:18:55.573Z,52
2018-06-22T01:20:05.047Z,60
2018-06-22T01:21:14.788Z,64
2018-06-22T01:22:25.008Z,64
2018-06-22T01:23:34.742Z,68
2018-06-22T01:24:44.761Z,76
2018-06-22T01:25:54.499Z,80
2018-06-22T01:27:03.968Z,80
2018-06-22T01:28:14.026Z,88
2018-06-22T01:29:23.763Z,92
2018-06-22T01:30:33.496Z,96
2018-06-22T01:31:43.232Z,100
2018-06-22T01:32:52.969Z,108
2018-06-22T01:34:02.434Z,116
2018-06-22T01:35:11.640Z,120
2018-06-22T01:36:21.376Z,124
2018-06-22T01:37:31.385Z,136
2018-06-22T01:38:41.128Z,140
2018-06-22T01:39:50.605Z,148
2018-06-22T01:41:00.613Z,152
2018-06-22T01:42:10.349Z,160
2018-06-22T01:43:20.352Z,172
2018-06-22T01:44:30.091Z,180
2018-06-22T01:45:39.832Z,192
2018-06-22T01:46:49.577Z,196
2018-06-22T01:47:59.311Z,208
2018-06-22T01:49:08.779Z,216
2018-06-22T01:50:20.517Z,228
2018-06-22T01:51:29.984Z,240
2018-06-22T01:52:39.457Z,248
2018-06-22T01:53:49.198Z,256
2018-06-22T01:54:59.205Z,268
2018-06-22T01:56:08.942Z,284
2018-06-22T01:57:18.680Z,292
2018-06-22T01:58:28.679Z,308
2018-06-22T01:59:38.677Z,320
2018-06-22T02:00:48.148Z,336
2018-06-22T02:01:58.151Z,348
2018-06-22T02:03:07.624Z,368
2018-06-22T02:04:17.176Z,388
2018-06-22T02:05:26.913Z,404
2018-06-22T02:06:36.402Z,420
2018-06-22T02:07:45.873Z,444
2018-06-22T02:08:55.875Z,460
2018-06-22T02:10:05.880Z,480
2018-06-22T02:11:15.914Z,500
2018-06-22T02:12:25.911Z,520
2018-06-22T02:13:35.386Z,548
2018-06-22T02:14:44.866Z,576
2018-06-22T02:15:54.333Z,608
2018-06-22T02:17:04.076Z,636
2018-06-22T02:18:13.550Z,660
2018-06-22T02:19:23.282Z,688
2018-06-22T02:20:33.018Z,708
2018-06-22T02:21:43.029Z,732
2018-06-22T02:22:53.033Z,748
2018-06-22T02:24:03.037Z,772
2018-06-22T02:25:12.509Z,784
2018-06-22T02:26:21.977Z,792
2018-06-22T02:27:31.998Z,800
2018-06-22T02:28:42.002Z,808
2018-06-22T02:29:51.737Z,816
2018-06-22T02:31:01.749Z,824
2018-06-22T02:32:11.490Z,828
2018-06-22T02:33:21.490Z,844
2018-06-22T02:34:31.498Z,856
2018-06-22T02:35:41.525Z,880
2018-06-22T02:36:51.554Z,904
2018-06-22T02:38:01.287Z,944
2018-06-22T02:39:10.227Z,976
2018-06-22T02:40:19.973Z,1004
2018-06-22T02:41:29.990Z,1024
2018-06-22T02:42:39.815Z,1060
2018-06-22T02:43:49.566Z,1092
2018-06-22T02:44:59.306Z,1112
2018-06-22T02:46:09.054Z,1128
2018-06-22T02:47:18.789Z,1116
2018-06-22T02:48:28.530Z,1108
2018-06-22T02:49:38.278Z,1124
2018-06-22T02:50:48.304Z,1140
2018-06-22T02:51:58.043Z,1156
2018-06-22T02:53:08.052Z,1172
2018-06-22T02:54:17.256Z,1184
2018-06-22T02:55:27.255Z,1176
2018-06-22T02:56:36.996Z,1180
2018-06-22T02:57:47.036Z,1188
2018-06-22T02:58:56.783Z,1204
2018-06-22T03:00:05.989Z,1224
2018-06-22T03:03:48.056Z,1312
2018-06-22T03:04:57.797Z,1348
2018-06-22T03:06:07.553Z,1384
2018-06-22T03:07:17.028Z,1428
2018-06-22T03:08:27.044Z,1448
2018-06-22T03:09:36.799Z,1472
2018-06-22T03:10:46.558Z,1488
2018-06-22T03:11:56.570Z,1500
2018-06-22T03:13:06.600Z,1508
2018-06-22T03:14:16.095Z,1508
2018-06-22T03:15:26.115Z,1516
2018-06-22T03:16:35.889Z,1508
2018-06-22T03:17:45.905Z,1508
2018-06-22T03:18:55.646Z,1500
2018-06-22T03:20:05.386Z,1500
2018-06-22T03:21:14.861Z,1512
2018-06-22T03:22:24.596Z,1536
2018-06-22T03:23:34.596Z,1568
2018-06-22T03:24:44.597Z,1604
2018-06-22T03:25:54.608Z,1628
2018-06-22T03:27:04.620Z,1652
2018-06-22T03:28:14.355Z,1664
2018-06-22T03:29:24.360Z,1668
2018-06-22T03:30:34.373Z,1660
2018-06-22T03:31:44.405Z,1668
2018-06-22T03:32:53.891Z,1668
2018-06-22T03:34:03.363Z,1664
2018-06-22T03:35:13.104Z,1668
2018-06-22T03:36:22.574Z,1680
2018-06-22T03:37:32.323Z,1720
2018-06-22T03:38:42.333Z,1784
2018-06-22T03:39:52.070Z,1848
2018-06-22T03:41:01.819Z,1888
2018-06-22T03:42:11.827Z,1908
2018-06-22T03:43:21.568Z,1924
2018-06-22T03:44:31.044Z,1936
2018-06-22T03:45:41.046Z,1948
2018-06-22T03:46:51.050Z,1948
2018-06-22T03:48:01.059Z,1936
2018-06-22T03:49:11.066Z,1900
2018-06-22T03:50:20.839Z,1848
2018-06-22T03:51:30.582Z,1768
2018-06-22T03:52:40.590Z,1676
2018-06-22T03:53:50.632Z,1592
2018-06-22T03:55:00.651Z,1524
2018-06-22T03:56:10.381Z,1488
2018-06-22T03:57:20.174Z,1464
2018-06-22T03:58:29.643Z,1436
2018-06-22T03:59:39.648Z,1400
2018-06-22T04:00:49.656Z,1356
2018-06-22T04:01:59.659Z,1296
2018-06-22T04:03:09.716Z,1240
2018-06-22T04:04:19.454Z,1196
2018-06-22T04:05:29.463Z,1168
2018-06-22T04:06:39.204Z,1160
2018-06-22T04:07:49.215Z,1168
2018-06-22T04:08:58.828Z,1196
2018-06-22T04:10:08.869Z,1248
2018-06-22T04:11:18.876Z,1320
2018-06-22T04:12:28.890Z,1392
2018-06-22T04:13:38.360Z,1456
2018-06-22T04:14:48.099Z,1516
2018-06-22T04:15:57.843Z,1572
2018-06-22T04:17:07.580Z,1620
2018-06-22T04:18:17.585Z,1644
2018-06-22T04:19:27.598Z,1644
2018-06-22T04:20:37.088Z,1628
2018-06-22T04:21:46.834Z,1616
2018-06-22T04:22:56.568Z,1604
2018-06-22T04:24:06.044Z,1592
2018-06-22T04:25:16.054Z,1592
2018-06-22T04:26:25.542Z,1616
2018-06-22T04:27:35.548Z,1656
2018-06-22T04:28:45.553Z,1712
2018-06-22T04:29:55.559Z,1800
2018-06-22T04:31:05.560Z,1868
2018-06-22T04:32:15.305Z,1900
2018-06-22T04:33:25.313Z,1928
2018-06-22T04:34:35.319Z,1980
2018-06-22T04:35:45.376Z,2040
2018-06-22T04:36:55.120Z,2100
2018-06-22T04:38:05.141Z,2148
2018-06-22T04:39:14.891Z,2184
2018-06-22T04:40:24.626Z,2228
2018-06-22T04:41:33.831Z,2240
2018-06-22T04:42:43.849Z,2232
2018-06-22T04:43:53.855Z,2228
2018-06-22T04:45:03.595Z,2244
2018-06-22T04:46:13.347Z,2280
2018-06-22T04:47:23.369Z,2324
2018-06-22T04:48:33.379Z,2356
2018-06-22T04:49:43.381Z,2388
2018-06-22T04:50:53.391Z,2420
2018-06-22T04:52:03.397Z,2448
2018-06-22T04:53:13.141Z,2448
2018-06-22T04:54:22.610Z,2420
2018-06-22T04:55:32.346Z,2408
2018-06-22T04:56:42.087Z,2396
2018-06-22T04:57:52.096Z,2404
2018-06-22T04:59:01.838Z,2424
2018-06-22T05:00:11.309Z,2456
2018-06-22T05:01:20.785Z,2524
2018-06-22T05:02:30.530Z,2644
2018-06-22T05:03:40.370Z,2760
2018-06-22T05:04:50.060Z,2856
2018-06-22T05:06:00.063Z,2956
2018-06-22T05:07:09.280Z,3096
2018-06-22T05:08:19.022Z,3276
2018-06-22T05:09:29.182Z,3484
2018-06-22T05:10:38.944Z,3696
2018-06-22T05:11:48.983Z,3852
2018-06-22T05:12:58.723Z,3948
2018-06-22T05:14:08.740Z,4036
2018-06-22T05:15:18.485Z,4112
2018-06-22T05:16:28.488Z,4164
2018-06-22T05:17:38.499Z,4220
2018-06-22T05:18:48.513Z,4300
2018-06-22T05:19:58.255Z,4460
2018-06-22T05:21:08.275Z,4720
2018-06-22T05:22:18.297Z,5060
2018-06-22T05:23:28.037Z,5320
2018-06-22T05:24:37.779Z,5476
2018-06-22T05:25:47.795Z,5564
2018-06-22T05:26:57.800Z,5628
2018-06-22T05:28:07.819Z,5732
2018-06-22T05:29:17.828Z,5864
2018-06-22T05:30:28.190Z,5956
2018-06-22T05:31:38.195Z,5980
2018-06-22T05:32:48.210Z,5980
2018-06-22T05:33:57.685Z,6060
2018-06-22T05:35:07.688Z,6160
2018-06-22T05:36:17.699Z,6176
2018-06-22T05:37:27.713Z,6168
2018-06-22T05:38:37.831Z,6116
2018-06-22T05:39:47.842Z,6084
2018-06-22T05:40:57.584Z,6080
2018-06-22T05:42:06.520Z,6144
2018-06-22T05:43:16.259Z,6304
2018-06-22T05:44:25.732Z,6592
2018-06-22T05:45:35.207Z,6968
2018-06-22T05:46:45.209Z,7428
2018-06-22T05:47:54.958Z,7808
2018-06-22T05:49:04.971Z,7904
2018-06-22T05:50:14.448Z,7848
2018-06-22T05:51:23.653Z,7688
2018-06-22T05:52:33.125Z,7692
2018-06-22T05:53:42.866Z,7840
2018-06-22T05:54:52.608Z,7852
2018-06-22T05:56:02.619Z,7808
2018-06-22T05:57:12.395Z,7764
2018-06-22T05:58:22.192Z,7828
2018-06-22T05:59:32.196Z,7836
2018-06-22T06:00:41.937Z,7724
2018-06-22T06:01:51.406Z,7592
2018-06-22T06:03:01.412Z,7588
2018-06-22T06:04:11.428Z,7544
2018-06-22T06:05:21.440Z,7432
2018-06-22T06:06:31.453Z,7256
2018-06-22T06:07:41.473Z,7156
2018-06-22T06:08:51.481Z,7328
2018-06-22T06:10:01.230Z,7560
2018-06-22T06:11:11.129Z,7680
2018-06-22T06:12:21.015Z,7640
2018-06-22T06:13:30.756Z,7464
2018-06-22T06:14:40.760Z,7456
2018-06-22T06:15:50.776Z,7636
2018-06-22T06:17:00.251Z,7868
2018-06-22T06:18:09.991Z,8132
2018-06-22T06:19:19.745Z,8384
2018-06-22T06:20:29.749Z,8568
2018-06-22T06:21:38.958Z,8680
2018-06-22T06:22:48.704Z,8672
2018-06-22T06:23:58.722Z,8552
2018-06-22T06:25:08.213Z,8364
2018-06-22T06:26:18.224Z,8184
2018-06-22T06:27:28.523Z,8032
2018-06-22T06:28:38.529Z,7892
2018-06-22T06:29:48.539Z,7800
2018-06-22T06:30:58.544Z,7812
2018-06-22T06:32:08.021Z,7884
2018-06-22T06:33:17.820Z,7968
2018-06-22T06:34:27.912Z,8080
2018-06-22T06:35:37.741Z,8272
2018-06-22T06:36:47.745Z,8460
2018-06-22T06:37:57.744Z,8728
2018-06-22T06:39:07.752Z,9032
2018-06-22T06:40:17.773Z,9236
2018-06-22T06:41:27.776Z,9400
2018-06-22T06:42:37.785Z,9528
2018-06-22T06:43:47.798Z,9576
2018-06-22T06:44:57.541Z,9584
2018-06-22T06:46:07.560Z,9544
2018-06-22T06:47:17.231Z,9508
2018-06-22T06:48:26.706Z,9524
2018-06-22T06:49:36.931Z,9488
2018-06-22T06:50:47.073Z,9364
2018-06-22T06:51:57.089Z,9244
2018-06-22T06:53:06.562Z,9128
2018-06-22T06:54:16.302Z,9036
2018-06-22T06:55:25.777Z,8972
2018-06-22T06:56:35.784Z,8976
2018-06-22T06:57:45.793Z,9072
2018-06-22T06:58:55.534Z,9188
2018-06-22T07:00:04.741Z,9204
2018-06-22T07:01:14.217Z,9120
2018-06-22T07:02:23.689Z,8924
2018-06-22T07:03:33.178Z,8772
2018-06-22T07:04:43.181Z,8660
2018-06-22T07:05:53.194Z,8556
2018-06-22T07:07:02.667Z,8504
2018-06-22T07:08:12.410Z,8428
2018-06-22T07:09:22.152Z,8224
2018-06-22T07:10:31.889Z,8020
2018-06-22T07:11:41.372Z,7944
2018-06-22T07:12:51.119Z,7720
2018-06-22T07:14:00.860Z,7612
2018-06-22T07:15:10.345Z,7644
2018-06-22T07:16:20.090Z,7660
2018-06-22T07:17:30.105Z,7728
2018-06-22T07:18:39.582Z,7848
2018-06-22T07:19:49.591Z,7940
2018-06-22T07:20:59.602Z,7996
2018-06-22T07:22:09.346Z,8272
2018-06-22T07:23:19.364Z,8424
2018-06-22T07:24:29.169Z,8512
2018-06-22T07:25:38.910Z,8612
2018-06-22T07:26:48.654Z,8664
2018-06-22T07:27:58.124Z,8776
2018-06-22T07:29:08.137Z,8904
2018-06-22T07:30:17.895Z,9156
2018-06-22T07:31:27.373Z,9300
2018-06-22T07:32:37.116Z,9408
2018-06-22T07:33:47.127Z,9540
2018-06-22T07:34:57.129Z,9704
2018-06-22T07:36:07.118Z,10296
2018-06-22T07:37:16.595Z,10564
2018-06-22T07:38:26.333Z,10684
2018-06-22T07:39:35.814Z,10936
2018-06-22T07:40:45.820Z,11408
2018-06-22T07:41:55.837Z,11684
2018-06-22T07:43:05.852Z,11848
2018-06-22T07:44:15.862Z,11904
2018-06-22T07:45:25.712Z,11860
2018-06-22T07:46:35.460Z,11888
2018-06-22T07:47:45.201Z,12044
2018-06-22T07:48:54.946Z,12284
2018-06-22T07:50:04.692Z,12496
2018-06-22T07:51:14.714Z,12632
2018-06-22T07:52:23.923Z,12424
2018-06-22T07:53:33.664Z,12128
2018-06-22T07:54:43.418Z,11940
2018-06-22T07:55:53.432Z,11980
2018-06-22T07:57:02.912Z,12196
2018-06-22T07:58:12.926Z,12380
2018-06-22T07:59:22.403Z,12636
2018-06-22T08:00:32.156Z,13288
2018-06-22T08:01:41.901Z,13664
2018-06-22T08:02:51.382Z,13488
2018-06-22T08:04:01.395Z,12996
2018-06-22T08:05:10.872Z,13388
2018-06-22T08:06:21.063Z,13372
2018-06-22T08:07:31.307Z,13436
2018-06-22T08:08:40.791Z,13128
2018-06-22T08:09:50.800Z,12816
2018-06-22T08:11:00.551Z,11780
2018-06-22T08:12:10.566Z,11120
2018-06-22T08:13:20.572Z,11048
2018-06-22T08:14:30.339Z,11748
2018-06-22T08:15:40.350Z,12696
2018-06-22T08:16:49.887Z,13192
2018-06-22T08:17:59.160Z,13276
2018-06-22T08:19:08.102Z,13148
2018-06-22T08:20:18.110Z,13076
2018-06-22T08:21:28.118Z,13008
2018-06-22T08:22:38.181Z,13072
2018-06-22T08:23:48.497Z,13148
2018-06-22T08:24:58.504Z,13224
2018-06-22T08:26:08.243Z,13040
2018-06-22T08:27:17.981Z,13788
2018-06-22T08:28:27.727Z,14176
2018-06-22T08:29:37.202Z,13928
2018-06-22T08:30:47.212Z,13340
2018-06-22T08:31:57.229Z,12852
2018-06-22T08:33:06.974Z,11704
2018-06-22T08:34:16.715Z,10868
2018-06-22T08:35:26.455Z,10956
2018-06-22T08:36:36.203Z,11032
2018-06-22T08:37:45.947Z,10168
2018-06-22T08:38:55.685Z,8832
2018-06-22T08:40:05.429Z,8684
2018-06-22T08:41:14.645Z,10012
2018-06-22T08:42:24.787Z,10704
2018-06-22T08:43:34.531Z,11540
2018-06-22T08:44:44.271Z,11932
2018-06-22T08:45:54.279Z,11956
2018-06-22T08:47:04.285Z,11916
2018-06-22T08:48:14.301Z,11712
2018-06-22T08:49:24.312Z,12032
2018-06-22T08:50:34.062Z,12776
2018-06-22T08:51:44.072Z,13248
2018-06-22T08:52:53.553Z,13304
2018-06-22T08:54:03.300Z,13036
2018-06-22T08:55:13.052Z,12824
2018-06-22T08:56:22.804Z,12524
2018-06-22T08:57:32.830Z,12580
2018-06-22T08:58:42.837Z,12972
2018-06-22T08:59:52.589Z,13024
2018-06-22T09:01:01.531Z,12228
2018-06-22T09:02:11.042Z,10672
2018-06-22T09:03:20.524Z,9172
2018-06-22T09:04:30.532Z,7720
2018-06-22T09:05:40.547Z,7360
2018-06-22T09:06:50.289Z,7900
2018-06-22T09:07:59.512Z,8132
2018-06-22T09:09:08.736Z,7888
2018-06-22T09:10:18.492Z,8012
2018-06-22T09:11:28.504Z,7852
2018-06-22T09:12:38.807Z,9012
2018-06-22T09:13:48.927Z,10368
2018-06-22T09:14:58.403Z,10272
2018-06-22T09:16:07.882Z,10164
2018-06-22T09:17:17.626Z,10048
2018-06-22T09:18:27.372Z,10204
2018-06-22T09:19:37.224Z,9736
2018-06-22T09:20:47.330Z,9464
2018-06-22T09:21:57.347Z,9500
2018-06-22T09:23:06.824Z,8368
2018-06-22T09:24:16.856Z,7504
2018-06-22T09:25:27.222Z,6908
2018-06-22T09:26:36.618Z,6524
2018-06-22T09:27:46.364Z,6212
2018-06-22T09:28:56.400Z,6212
2018-06-22T09:30:05.979Z,6504
2018-06-22T09:31:16.061Z,7168
2018-06-22T09:32:26.136Z,8292
2018-06-22T09:33:36.146Z,9516
2018-06-22T09:34:45.892Z,10268
2018-06-22T09:35:56.213Z,10592
2018-06-22T09:37:05.963Z,10160
2018-06-22T09:38:15.976Z,9328
2018-06-22T09:39:25.181Z,8468
2018-06-22T09:40:34.933Z,8344
2018-06-22T09:41:44.729Z,8860
2018-06-22T09:42:54.703Z,9328
2018-06-22T09:44:04.629Z,9692
2018-06-22T09:45:14.689Z,9584
2018-06-22T09:46:24.712Z,9404
2018-06-22T09:47:34.451Z,9212
2018-06-22T09:48:44.467Z,8728
2018-06-22T09:49:53.943Z,8280
2018-06-22T09:51:03.683Z,8120
2018-06-22T09:52:13.158Z,8252
2018-06-22T09:53:22.901Z,8796
2018-06-22T09:54:32.648Z,9464
2018-06-22T09:55:42.656Z,9832
2018-06-22T09:56:52.401Z,9696
2018-06-22T09:58:02.417Z,9396
2018-06-22T09:59:12.164Z,9404
2018-06-22T10:00:21.907Z,9548
2018-06-22T10:01:31.119Z,9680
2018-06-22T10:02:41.126Z,9964
2018-06-22T10:03:50.878Z,10124
2018-06-22T10:05:00.626Z,10344
2018-06-22T10:06:10.663Z,10340
2018-06-22T10:07:20.143Z,10048
2018-06-22T10:08:29.624Z,9760
2018-06-22T10:09:39.372Z,9588
2018-06-22T10:10:49.390Z,9440
2018-06-22T10:11:59.143Z,9208
2018-06-22T10:13:08.902Z,8932
2018-06-22T10:14:18.655Z,8672
2018-06-22T10:15:28.668Z,8564
2018-06-22T10:16:38.675Z,8596
2018-06-22T10:17:48.745Z,8516
2018-06-22T10:18:58.226Z,8408
2018-06-22T10:20:07.700Z,8412
2018-06-22T10:21:17.713Z,8444
2018-06-22T10:22:27.461Z,8320
2018-06-22T10:23:36.945Z,8212
2018-06-22T10:24:46.428Z,8408
2018-06-22T10:25:56.437Z,8528
2018-06-22T10:27:06.393Z,8532
2018-06-22T10:28:16.419Z,8496
2018-06-22T10:29:26.158Z,8380
2018-06-22T10:30:35.954Z,8284
2018-06-22T10:31:45.703Z,8688
2018-06-22T10:32:55.731Z,9224
2018-06-22T10:34:06.014Z,9336
2018-06-22T10:35:16.023Z,9200
2018-06-22T10:36:26.031Z,9180
2018-06-22T10:37:35.788Z,9508
2018-06-22T10:38:45.260Z,9612
2018-06-22T10:39:54.731Z,9616
2018-06-22T10:41:04.212Z,9964
2018-06-22T10:42:13.957Z,10328
2018-06-22T10:43:23.697Z,10632
2018-06-22T10:44:33.712Z,10888
2018-06-22T10:45:43.504Z,11104
2018-06-22T10:46:53.532Z,10900
2018-06-22T10:48:03.005Z,10444
2018-06-22T10:49:13.021Z,9812
2018-06-22T10:50:22.768Z,9308
2018-06-22T10:51:35.036Z,9476
2018-06-22T10:52:45.131Z,10288
2018-06-22T10:53:55.153Z,10776
2018-06-22T10:55:04.652Z,10824
2018-06-22T10:56:14.403Z,10496
2018-06-22T10:57:23.878Z,10096
2018-06-22T10:58:33.625Z,9892
2018-06-22T10:59:43.345Z,9824
2018-06-22T11:00:53.315Z,9696
2018-06-22T11:02:03.332Z,9404
2018-06-22T11:03:13.337Z,9064
2018-06-22T11:04:23.087Z,9004
2018-06-22T11:05:32.831Z,9268
2018-06-22T11:06:42.575Z,9584
2018-06-22T11:07:52.058Z,9744
2018-06-22T11:09:02.075Z,9776
2018-06-22T11:10:11.820Z,9712
2018-06-22T11:11:21.827Z,9704
2018-06-22T11:12:31.834Z,9732
2018-06-22T11:13:41.578Z,9760
2018-06-22T11:14:51.049Z,9776
2018-06-22T11:16:01.059Z,9924
2018-06-22T11:17:11.396Z,10052
2018-06-22T11:18:21.398Z,10108
2018-06-22T11:19:31.192Z,10204
2018-06-22T11:20:40.670Z,10496
2018-06-22T11:21:50.410Z,10884
2018-06-22T11:23:00.151Z,11312
2018-06-22T11:24:09.360Z,11700
2018-06-22T11:25:19.365Z,12036
2018-06-22T11:26:29.376Z,12188
2018-06-22T11:27:39.385Z,12032
2018-06-22T11:28:49.431Z,11988
2018-06-22T11:29:59.449Z,12228
2018-06-22T11:31:09.224Z,12092
2018-06-22T11:32:19.501Z,11352
2018-06-22T11:33:29.292Z,10560
2018-06-22T11:34:39.403Z,10116
2018-06-22T11:35:48.998Z,10188
2018-06-22T11:36:59.226Z,9924
2018-06-22T11:38:08.709Z,9408
2018-06-22T11:39:18.446Z,8704
2018-06-22T11:40:28.191Z,8352
2018-06-22T11:41:37.939Z,8372
2018-06-22T11:42:47.944Z,8300
2018-06-22T11:44:01.290Z,7996
2018-06-22T11:45:10.761Z,7752
2018-06-22T11:46:20.514Z,7756
2018-06-22T11:47:30.519Z,7728
2018-06-22T11:48:40.263Z,7852
2018-06-22T11:49:50.290Z,8460
2018-06-22T11:51:00.311Z,8980
2018-06-22T11:52:10.095Z,9340
2018-06-22T11:53:19.571Z,9520
2018-06-22T11:54:29.403Z,9640
2018-06-22T11:55:39.423Z,9800
2018-06-22T11:56:49.437Z,10140
2018-06-22T11:57:58.944Z,10224
2018-06-22T11:59:08.565Z,9844
2018-06-22T12:00:18.755Z,9240
2018-06-22T12:01:28.505Z,8804
2018-06-22T12:02:38.253Z,8692
2018-06-22T12:03:48.272Z,8744
2018-06-22T12:04:58.014Z,9276
2018-06-22T12:06:07.505Z,9832
2018-06-22T12:07:17.512Z,10464
2018-06-22T12:08:27.543Z,10412
2018-06-22T12:09:37.335Z,10240
2018-06-22T12:10:47.343Z,10108
2018-06-22T12:11:57.080Z,10280
2018-06-22T12:13:06.827Z,10544
2018-06-22T12:14:16.841Z,11172
2018-06-22T12:15:26.904Z,11488
2018-06-22T12:16:36.650Z,11268
2018-06-22T12:17:46.703Z,11260
2018-06-22T12:18:56.462Z,11312
2018-06-22T12:20:05.964Z,11064
2018-06-22T12:21:16.041Z,10884
2018-06-22T12:22:25.783Z,11116
2018-06-22T12:23:35.521Z,11284
2018-06-22T12:24:45.527Z,11536
2018-06-22T12:25:55.272Z,12120
2018-06-22T12:27:05.017Z,12820
2018-06-22T12:28:14.765Z,12648
2018-06-22T12:29:24.789Z,13248
2018-06-22T12:30:34.807Z,14132
2018-06-22T12:31:44.287Z,15080
2018-06-22T12:32:53.780Z,16416
2018-06-22T12:34:03.524Z,16864
2018-06-22T12:35:13.262Z,19072
2018-06-22T12:36:22.745Z,19168
2018-06-22T12:37:32.490Z,21472
2018-06-22T12:38:42.351Z,22272
2018-06-22T12:39:52.371Z,21824
2018-06-22T12:41:02.381Z,23680
2018-06-22T12:42:12.138Z,28480
2018-06-22T12:43:22.152Z,33504
2018-06-22T12:44:31.630Z,34848
2018-06-22T12:45:41.108Z,35584
2018-06-22T12:46:50.856Z,34784
2018-06-22T12:48:00.662Z,39488
2018-06-22T12:49:10.144Z,42912
2018-06-22T12:50:20.161Z,44736
2018-06-22T12:51:30.172Z,44448
2018-06-22T12:52:39.920Z,48416
2018-06-22T12:53:49.194Z,38400
2018-06-22T12:54:59.386Z,39040
2018-06-22T12:56:09.144Z,34144
2018-06-22T12:57:18.624Z,30656
2018-06-22T12:58:28.372Z,28000
2018-06-22T12:59:38.382Z,26912
2018-06-22T13:00:48.130Z,30944
2018-06-22T13:01:57.906Z,54944
2018-06-22T13:03:07.118Z,35488
2018-06-22T13:04:17.134Z,41888
2018-06-22T13:05:26.884Z,43136
2018-06-22T13:06:36.898Z,39520
2018-06-22T13:07:46.908Z,35232
2018-06-22T13:08:56.659Z,35264
2018-06-22T13:10:06.140Z,35776
2018-06-22T13:11:15.358Z,28160
2018-06-22T13:12:25.391Z,19712
2018-06-22T13:13:35.409Z,18144
2018-06-22T13:14:45.155Z,18720
2018-06-22T13:15:54.902Z,19296
2018-06-22T13:17:05.019Z,16960
2018-06-22T13:18:15.281Z,13692
2018-06-22T13:19:25.294Z,12136
2018-06-22T13:20:34.779Z,11216
2018-06-22T13:21:44.523Z,10696
2018-06-22T13:22:53.466Z,10436
2018-06-22T13:24:03.229Z,10052
2018-06-22T13:25:12.446Z,10296
2018-06-22T13:26:22.459Z,11080
2018-06-22T13:27:31.945Z,11772
2018-06-22T13:28:41.954Z,12132
2018-06-22T13:29:51.971Z,12192
2018-06-22T13:31:01.714Z,12340
2018-06-22T13:32:11.723Z,12468
2018-06-22T13:33:21.564Z,13224
2018-06-22T13:34:31.586Z,13960
2018-06-22T13:35:41.337Z,13376
2018-06-22T13:36:51.355Z,12424
2018-06-22T13:38:00.837Z,11748
2018-06-22T13:39:10.312Z,11408
2018-06-22T13:40:20.342Z,11756
2018-06-22T13:41:30.351Z,12972
2018-06-22T13:42:40.365Z,13280
2018-06-22T13:43:49.839Z,12292
2018-06-22T13:44:59.884Z,11604
2018-06-22T13:46:09.638Z,11684
2018-06-22T13:47:19.118Z,11244
2018-06-22T13:48:28.597Z,10272
2018-06-22T13:49:38.344Z,9696
2018-06-22T13:50:48.361Z,9564
2018-06-22T13:51:58.371Z,9500
2018-06-22T13:53:07.848Z,9412
2018-06-22T13:54:17.590Z,9576
2018-06-22T13:55:27.649Z,9956
2018-06-22T13:56:37.386Z,10324
2018-06-22T13:57:47.725Z,10656
2018-06-22T13:58:57.594Z,10832
2018-06-22T14:00:06.805Z,10768
2018-06-22T14:01:16.549Z,10488
2018-06-22T14:02:26.564Z,10056
2018-06-22T14:03:36.304Z,9996
2018-06-22T14:04:46.045Z,10220
2018-06-22T14:05:56.051Z,9868
2018-06-22T14:07:05.551Z,9424
2018-06-22T14:08:15.563Z,9092
2018-06-22T14:09:25.702Z,8764
2018-06-22T14:10:35.497Z,8692
2018-06-22T14:11:44.970Z,8768
2018-06-22T14:12:54.715Z,8508
2018-06-22T14:14:04.192Z,8212
2018-06-22T14:15:14.199Z,7956
2018-06-22T14:16:24.249Z,7808
2018-06-22T14:17:33.468Z,7740
2018-06-22T14:18:43.486Z,7620
2018-06-22T14:19:53.229Z,7644
2018-06-22T14:21:02.976Z,7640
2018-06-22T14:22:12.461Z,7616
2018-06-22T14:23:22.202Z,7596
2018-06-22T14:24:31.413Z,7692
2018-06-22T14:25:41.153Z,7724
2018-06-22T14:26:51.160Z,7788
2018-06-22T14:28:01.168Z,7824
2018-06-22T14:29:11.179Z,7964
2018-06-22T14:30:21.202Z,7808
2018-06-22T14:31:31.208Z,7980
2018-06-22T14:32:40.957Z,8444
2018-06-22T14:33:50.432Z,8648
2018-06-22T14:35:00.171Z,8864
2018-06-22T14:36:09.645Z,9036
2018-06-22T14:37:19.660Z,9104
2018-06-22T14:38:29.135Z,8832
2018-06-22T14:39:38.606Z,8860
2018-06-22T14:40:48.089Z,8876
2018-06-22T14:41:57.833Z,8660
2018-06-22T14:43:07.852Z,8096
2018-06-22T14:44:17.870Z,7816
2018-06-22T14:45:27.354Z,7936
2018-06-22T14:46:37.393Z,8108
2018-06-22T14:47:47.149Z,8148
2018-06-22T14:48:57.011Z,8160
2018-06-22T14:50:05.966Z,8212
2018-06-22T14:51:15.975Z,8200
2018-06-22T14:52:25.984Z,8272
2018-06-22T14:53:35.996Z,8440
2018-06-22T14:54:45.571Z,8656
2018-06-22T14:55:55.312Z,8824
2018-06-22T14:57:05.328Z,8804
2018-06-22T14:58:15.338Z,8820
2018-06-22T14:59:25.356Z,9036
2018-06-22T15:00:35.146Z,9352
2018-06-22T15:01:44.889Z,9572
2018-06-22T15:02:55.015Z,9408
2018-06-22T15:04:04.819Z,8904
2018-06-22T15:05:14.568Z,8432
2018-06-22T15:06:24.583Z,8404
2018-06-22T15:07:34.591Z,8824
2018-06-22T15:08:44.333Z,9144
2018-06-22T15:09:54.070Z,10112
2018-06-22T15:11:04.080Z,11428
2018-06-22T15:12:13.553Z,12080
2018-06-22T15:13:23.560Z,11960
2018-06-22T15:14:33.039Z,11592
2018-06-22T15:15:42.780Z,10996
2018-06-22T15:16:52.887Z,10296
2018-06-22T15:18:02.722Z,9764
2018-06-22T15:19:12.468Z,9404
2018-06-22T15:20:22.475Z,9020
2018-06-22T15:21:31.952Z,8644
2018-06-22T15:22:42.013Z,8296
2018-06-22T15:23:51.754Z,7996
2018-06-22T15:25:01.495Z,7732
2018-06-22T15:26:11.251Z,7492
2018-06-22T15:27:21.010Z,7328
2018-06-22T15:28:30.756Z,7144
2018-06-22T15:29:40.855Z,7028
2018-06-22T15:30:50.684Z,6916
2018-06-22T15:32:00.695Z,6912
2018-06-22T15:33:10.439Z,6976